createdAt,value
2019-02-20T00:01:37.952Z,11.53
2019-02-20T00:04:07.756Z,13.37
2019-02-20T00:06:36.722Z,12.13
2019-02-20T00:09:06.886Z,10.27
2019-02-20T00:11:35.867Z,12.77
2019-02-20T00:14:05.230Z,14.47
2019-02-20T00:16:34.411Z,13.43
2019-02-20T00:19:03.323Z,11.23
2019-02-20T00:21:32.560Z,9.87
2019-02-20T00:24:03.843Z,14.63
2019-02-20T00:26:32.772Z,12.53
2019-02-20T00:29:01.778Z,11.63
2019-02-20T00:31:30.927Z,15.17
2019-02-20T00:33:59.864Z,12.67
2019-02-20T00:36:28.868Z,11.03
2019-02-20T00:38:57.721Z,14.00
2019-02-20T00:41:27.029Z,14.10
2019-02-20T00:44:26.914Z,14.60
2019-02-20T00:47:13.334Z,11.30
2019-02-20T00:49:45.819Z,11.37
2019-02-20T00:52:20.967Z,13.13
2019-02-20T00:54:49.901Z,11.90
2019-02-20T00:57:18.757Z,13.10
2019-02-20T00:59:47.728Z,13.63
2019-02-20T01:02:16.760Z,10.00
2019-02-20T01:04:45.726Z,13.30
2019-02-20T01:07:14.717Z,10.57
2019-02-20T01:09:43.855Z,17.80
2019-02-20T01:12:12.959Z,14.60
2019-02-20T01:14:41.949Z,15.60
2019-02-20T01:17:10.966Z,8.43
2019-02-20T01:19:39.940Z,11.83
2019-02-20T01:22:09.079Z,13.90
2019-02-20T01:24:37.942Z,11.77
2019-02-20T01:27:06.949Z,10.17
2019-02-20T01:29:35.921Z,11.10
2019-02-20T01:32:04.862Z,10.37
2019-02-20T01:34:33.720Z,11.17
2019-02-20T01:37:02.689Z,12.23
2019-02-20T01:39:31.571Z,10.17
2019-02-20T01:42:00.510Z,12.10
2019-02-20T01:44:29.689Z,9.07
2019-02-20T01:46:58.725Z,8.23
2019-02-20T01:49:27.831Z,11.70
2019-02-20T01:51:56.690Z,7.17
2019-02-20T01:54:25.565Z,9.80
2019-02-20T01:56:54.451Z,8.50
2019-02-20T01:59:23.407Z,8.27
2019-02-20T02:01:52.403Z,9.57
2019-02-20T02:04:21.413Z,6.87
2019-02-20T02:06:50.421Z,7.00
2019-02-20T02:09:19.494Z,9.00
2019-02-20T02:11:48.329Z,10.33
2019-02-20T02:14:17.252Z,9.40
2019-02-20T02:16:46.087Z,6.40
2019-02-20T02:19:15.017Z,7.80
2019-02-20T02:21:44.057Z,7.27
2019-02-20T02:24:13.024Z,6.77
2019-02-20T02:26:41.905Z,6.83
2019-02-20T02:29:10.760Z,7.50
2019-02-20T02:31:39.701Z,6.17
2019-02-20T02:34:08.711Z,8.70
2019-02-20T02:36:37.622Z,8.53
2019-02-20T02:39:06.623Z,7.00
2019-02-20T02:41:35.562Z,10.07
2019-02-20T02:44:04.428Z,8.10
2019-02-20T02:46:34.509Z,7.87
2019-02-20T02:49:03.495Z,7.40
2019-02-20T02:51:32.414Z,6.27
2019-02-20T02:54:01.282Z,5.67
2019-02-20T02:56:30.184Z,6.57
2019-02-20T02:58:59.061Z,6.43
2019-02-20T03:01:28.031Z,6.93
2019-02-20T03:03:56.943Z,5.90
2019-02-20T03:06:26.023Z,8.17
2019-02-20T03:08:54.993Z,6.73
2019-02-20T03:11:23.830Z,7.77
2019-02-20T03:13:52.769Z,6.73
2019-02-20T03:16:21.668Z,6.23
2019-02-20T03:18:50.621Z,11.30
2019-02-20T03:21:19.703Z,7.43
2019-02-20T03:23:48.699Z,7.37
2019-02-20T03:26:17.805Z,8.27
2019-02-20T03:28:47.259Z,6.27
2019-02-20T03:31:16.214Z,9.67
2019-02-20T03:33:45.189Z,8.23
2019-02-20T03:36:14.094Z,6.50
2019-02-20T03:38:43.141Z,8.20
2019-02-20T03:41:12.226Z,7.67
2019-02-20T03:43:41.216Z,7.37
2019-02-20T03:46:10.316Z,6.23
2019-02-20T03:48:39.460Z,8.73
2019-02-20T03:51:08.384Z,7.93
2019-02-20T03:53:37.395Z,7.93
2019-02-20T03:56:06.330Z,9.23
2019-02-20T03:58:35.442Z,8.10
2019-02-20T04:01:04.321Z,8.53
2019-02-20T04:03:33.515Z,5.77
2019-02-20T04:06:02.699Z,6.93
2019-02-20T04:08:31.683Z,7.47
2019-02-20T04:11:00.711Z,8.17
2019-02-20T04:13:29.675Z,9.03
2019-02-20T04:15:58.645Z,7.50
2019-02-20T04:18:27.576Z,9.77
2019-02-20T04:20:56.496Z,9.33
2019-02-20T04:23:25.621Z,10.07
2019-02-20T04:25:54.460Z,11.97
2019-02-20T04:28:23.319Z,13.67
2019-02-20T04:30:52.191Z,8.53
2019-02-20T04:33:21.232Z,8.27
2019-02-20T04:35:50.126Z,8.70
2019-02-20T04:38:19.293Z,8.87
2019-02-20T04:40:48.452Z,10.07
2019-02-20T04:43:17.568Z,9.00
2019-02-20T04:45:46.513Z,12.13
2019-02-20T04:48:15.719Z,13.30
2019-02-20T04:50:44.648Z,10.40
2019-02-20T04:53:15.205Z,10.03
2019-02-20T04:55:44.052Z,12.40
2019-02-20T04:58:20.346Z,13.47
2019-02-20T05:00:49.700Z,10.97
2019-02-20T05:03:18.759Z,11.60
2019-02-20T05:05:47.782Z,14.50
2019-02-20T05:08:16.702Z,11.53
2019-02-20T05:10:45.789Z,12.77
2019-02-20T05:13:14.648Z,9.73
2019-02-20T05:15:43.962Z,13.33
2019-02-20T05:18:12.956Z,12.50
2019-02-20T05:20:41.940Z,9.97
2019-02-20T05:23:10.793Z,11.27
2019-02-20T05:25:39.821Z,11.20
2019-02-20T05:28:08.834Z,13.47
2019-02-20T05:30:38.131Z,12.73
2019-02-20T05:33:07.361Z,11.10
2019-02-20T05:35:36.714Z,9.80
2019-02-20T05:38:05.809Z,10.53
2019-02-20T05:40:34.707Z,12.47
2019-02-20T05:43:03.690Z,10.77
2019-02-20T05:45:33.025Z,11.77
2019-02-20T05:48:02.163Z,12.10
2019-02-20T05:50:31.150Z,12.10
2019-02-20T05:53:00.160Z,10.20
2019-02-20T05:55:29.166Z,14.83
2019-02-20T05:57:58.357Z,11.20
2019-02-20T06:00:27.290Z,14.03
2019-02-20T06:02:56.422Z,12.47
2019-02-20T06:05:25.612Z,11.43
2019-02-20T06:07:54.515Z,11.17
2019-02-20T06:10:24.082Z,11.87
2019-02-20T06:12:53.418Z,10.67
2019-02-20T06:15:22.870Z,12.77
2019-02-20T06:17:51.993Z,10.43
2019-02-20T06:20:21.422Z,11.20
2019-02-20T06:22:50.516Z,10.67
2019-02-20T06:25:19.589Z,12.30
2019-02-20T06:27:48.554Z,11.00
2019-02-20T06:30:17.552Z,13.30
2019-02-20T06:32:46.814Z,14.53
2019-02-20T06:35:15.808Z,14.13
2019-02-20T06:37:44.910Z,18.13
2019-02-20T06:40:15.684Z,10.07
2019-02-20T06:42:44.834Z,9.80
2019-02-20T06:45:14.269Z,15.23
2019-02-20T06:47:43.942Z,12.47
2019-02-20T06:50:13.290Z,13.73
2019-02-20T06:52:42.434Z,11.53
2019-02-20T06:55:11.514Z,12.43
2019-02-20T06:57:40.574Z,10.97
2019-02-20T07:00:12.293Z,9.43
2019-02-20T07:02:41.603Z,10.03
2019-02-20T07:05:50.848Z,14.03
2019-02-20T07:08:54.368Z,11.23
2019-02-20T07:12:08.730Z,11.03
2019-02-20T07:15:07.355Z,10.20
2019-02-20T07:18:16.195Z,10.60
2019-02-20T07:21:13.130Z,14.27
2019-02-20T07:24:11.277Z,11.03
2019-02-20T07:27:10.923Z,12.07
2019-02-20T07:29:47.283Z,11.20
2019-02-20T07:32:20.972Z,9.73
2019-02-20T07:34:50.141Z,10.87
2019-02-20T07:37:21.483Z,11.07
2019-02-20T07:39:50.412Z,12.93
2019-02-20T07:42:19.482Z,16.73
2019-02-20T07:44:51.929Z,11.30
2019-02-20T07:47:21.170Z,11.37
2019-02-20T07:49:50.137Z,13.30
2019-02-20T07:52:23.466Z,10.87
2019-02-20T07:54:52.482Z,12.20
2019-02-20T07:57:21.838Z,11.60
2019-02-20T07:59:50.971Z,10.93
2019-02-20T08:02:20.054Z,11.47
2019-02-20T08:04:49.039Z,12.03
2019-02-20T08:07:18.507Z,12.93
2019-02-20T08:09:47.432Z,9.27
2019-02-20T08:12:16.422Z,10.37
2019-02-20T08:14:45.353Z,12.23
2019-02-20T08:17:14.503Z,12.17
2019-02-20T08:19:43.627Z,14.10
2019-02-20T08:22:12.797Z,11.27
2019-02-20T08:24:41.663Z,11.10
2019-02-20T08:27:10.850Z,12.60
2019-02-20T08:29:39.979Z,12.83
2019-02-20T08:32:10.773Z,16.37
2019-02-20T08:34:39.964Z,12.90
2019-02-20T08:37:09.043Z,12.77
2019-02-20T08:39:38.259Z,16.10
2019-02-20T08:42:07.216Z,10.33
2019-02-20T08:44:36.211Z,12.60
2019-02-20T08:47:05.286Z,13.80
2019-02-20T08:49:34.363Z,14.57
2019-02-20T08:52:06.309Z,13.87
2019-02-20T08:54:35.558Z,11.00
2019-02-20T08:57:04.465Z,12.20
2019-02-20T08:59:33.747Z,15.17
2019-02-20T09:02:03.107Z,14.33
2019-02-20T09:04:32.938Z,13.67
2019-02-20T09:07:01.909Z,12.93
2019-02-20T09:09:30.945Z,15.00
2019-02-20T09:11:59.918Z,16.83
2019-02-20T09:14:29.293Z,14.00
2019-02-20T09:16:58.418Z,14.20
2019-02-20T09:19:27.693Z,16.43
2019-02-20T09:21:56.687Z,14.13
2019-02-20T09:24:25.768Z,13.70
2019-02-20T09:26:54.770Z,16.07
2019-02-20T09:29:23.979Z,14.07
2019-02-20T09:31:52.890Z,12.80
2019-02-20T09:34:21.961Z,14.97
2019-02-20T09:36:50.954Z,13.47
2019-02-20T09:39:39.118Z,15.70
2019-02-20T09:42:10.437Z,17.17
2019-02-20T09:44:45.362Z,14.60
2019-02-20T09:47:14.446Z,15.27
2019-02-20T09:49:43.600Z,15.37
2019-02-20T09:52:12.557Z,17.30
2019-02-20T09:54:41.514Z,16.87
2019-02-20T09:57:10.621Z,17.23
2019-02-20T09:59:39.956Z,16.03
2019-02-20T10:02:09.063Z,16.17
2019-02-20T10:04:38.382Z,15.60
2019-02-20T10:07:07.477Z,21.07
2019-02-20T10:09:36.729Z,13.40
2019-02-20T10:12:05.946Z,13.13
2019-02-20T10:14:35.370Z,17.77
2019-02-20T10:17:04.519Z,17.27
2019-02-20T10:19:33.596Z,16.30
2019-02-20T10:22:02.829Z,12.23
2019-02-20T10:24:36.101Z,13.97
2019-02-20T10:27:05.175Z,14.07
2019-02-20T10:29:35.052Z,15.17
2019-02-20T10:32:04.348Z,16.80
2019-02-20T10:34:33.635Z,13.57
2019-02-20T10:37:03.158Z,17.37
2019-02-20T10:39:32.211Z,18.73
2019-02-20T10:42:01.347Z,13.93
2019-02-20T10:44:32.483Z,15.97
2019-02-20T10:47:01.631Z,14.37
2019-02-20T10:49:30.925Z,17.63
2019-02-20T10:52:00.468Z,13.57
2019-02-20T10:54:29.687Z,16.13
2019-02-20T10:56:58.751Z,15.57
2019-02-20T10:59:27.654Z,14.13
2019-02-20T11:01:56.665Z,16.37
2019-02-20T11:04:25.729Z,12.13
2019-02-20T11:06:54.721Z,13.37
2019-02-20T11:09:24.303Z,14.40
2019-02-20T11:11:54.516Z,15.67
2019-02-20T11:14:23.735Z,17.03
2019-02-20T11:16:52.727Z,17.80
2019-02-20T11:19:21.835Z,14.17
2019-02-20T11:21:50.871Z,14.60
2019-02-20T11:24:19.805Z,14.57
2019-02-20T11:26:54.702Z,14.83
2019-02-20T11:29:19.684Z,15.23
2019-02-20T11:31:48.829Z,17.33
2019-02-20T11:34:19.720Z,18.20
2019-02-20T11:36:49.459Z,12.80
2019-02-20T11:39:18.567Z,15.47
2019-02-20T11:41:47.659Z,14.33
2019-02-20T11:44:20.959Z,17.73
2019-02-20T11:46:47.418Z,16.03
2019-02-20T11:49:16.401Z,17.87
2019-02-20T11:51:45.357Z,13.80
2019-02-20T11:54:14.493Z,18.53
2019-02-20T11:56:43.484Z,16.10
2019-02-20T11:59:12.494Z,16.00
2019-02-20T12:01:41.594Z,19.67
2019-02-20T12:04:10.515Z,14.53
2019-02-20T12:06:39.628Z,13.37
2019-02-20T12:09:09.220Z,13.00
2019-02-20T12:11:38.454Z,15.63
2019-02-20T12:14:07.465Z,17.07
2019-02-20T12:16:36.598Z,15.70
2019-02-20T12:19:05.579Z,15.70
2019-02-20T12:21:34.528Z,17.23
2019-02-20T12:24:03.730Z,15.47
2019-02-20T12:26:35.295Z,14.87
2019-02-20T12:29:04.479Z,14.03
2019-02-20T12:31:33.834Z,24.67
2019-02-20T12:34:03.101Z,14.53
2019-02-20T12:36:32.894Z,11.50
2019-02-20T12:39:01.824Z,16.20
2019-02-20T12:41:30.862Z,16.00
2019-02-20T12:43:59.794Z,14.37
2019-02-20T12:46:28.922Z,15.63
2019-02-20T12:48:58.074Z,11.57
2019-02-20T12:51:27.286Z,17.10
2019-02-20T12:53:56.201Z,13.93
2019-02-20T12:56:25.334Z,14.13
2019-02-20T12:58:54.382Z,19.00
2019-02-20T13:01:23.612Z,14.50
2019-02-20T13:03:53.202Z,14.10
2019-02-20T13:06:22.390Z,14.50
2019-02-20T13:08:51.431Z,19.20
2019-02-20T13:11:20.551Z,16.20
2019-02-20T13:13:49.669Z,13.00
2019-02-20T13:16:18.674Z,14.17
2019-02-20T13:18:48.168Z,15.53
2019-02-20T13:21:17.297Z,16.07
2019-02-20T13:23:46.367Z,14.93
2019-02-20T13:26:16.340Z,17.70
2019-02-20T13:28:45.473Z,16.80
2019-02-20T13:31:14.712Z,18.20
2019-02-20T13:33:43.905Z,18.53
2019-02-20T13:36:13.126Z,14.50
2019-02-20T13:38:42.872Z,17.50
2019-02-20T13:41:12.665Z,14.37
2019-02-20T13:43:41.736Z,15.57
2019-02-20T13:46:11.855Z,15.33
2019-02-20T13:48:41.044Z,16.27
2019-02-20T13:51:10.564Z,11.57
2019-02-20T13:53:46.247Z,14.90
2019-02-20T13:56:10.653Z,15.50
2019-02-20T13:58:39.823Z,16.87
2019-02-20T14:01:09.063Z,14.33
2019-02-20T14:03:38.541Z,16.47
2019-02-20T14:06:10.421Z,15.07
2019-02-20T14:08:41.441Z,16.33
2019-02-20T14:11:12.355Z,12.73
2019-02-20T14:13:43.739Z,18.50
2019-02-20T14:16:15.242Z,17.37
2019-02-20T14:18:44.305Z,11.17
2019-02-20T14:21:13.573Z,12.57
2019-02-20T14:23:42.806Z,14.37
2019-02-20T14:26:12.134Z,16.23
2019-02-20T14:28:41.114Z,15.47
2019-02-20T14:31:10.155Z,14.40
2019-02-20T14:33:39.873Z,14.53
2019-02-20T14:36:09.076Z,15.13
2019-02-20T14:38:38.286Z,15.70
2019-02-20T14:41:09.173Z,16.07
2019-02-20T14:43:39.503Z,16.40
2019-02-20T14:46:08.855Z,15.43
2019-02-20T14:48:37.866Z,13.10
2019-02-20T14:51:07.086Z,14.60
2019-02-20T14:53:36.694Z,12.00
2019-02-20T14:56:06.362Z,15.37
2019-02-20T14:58:35.563Z,13.77
2019-02-20T15:01:06.148Z,12.20
2019-02-20T15:03:35.212Z,17.43
2019-02-20T15:06:04.428Z,16.53
2019-02-20T15:08:33.744Z,13.53
2019-02-20T15:11:03.121Z,16.40
2019-02-20T15:13:32.187Z,13.50
2019-02-20T15:16:01.415Z,15.73
2019-02-20T15:18:30.989Z,14.70
2019-02-20T15:21:00.140Z,18.27
2019-02-20T15:23:31.268Z,16.90
2019-02-20T15:26:01.074Z,14.63
2019-02-20T15:28:30.346Z,11.57
2019-02-20T15:30:59.376Z,20.73
2019-02-20T15:33:28.942Z,12.43
2019-02-20T15:35:58.802Z,15.37
2019-02-20T15:38:28.499Z,13.40
2019-02-20T15:40:57.801Z,12.93
2019-02-20T15:43:27.239Z,12.03
2019-02-20T15:45:57.599Z,12.70
2019-02-20T15:48:30.085Z,11.83
2019-02-20T15:50:59.220Z,16.20
2019-02-20T15:53:28.398Z,12.83
2019-02-20T15:55:57.510Z,12.70
2019-02-20T15:58:27.279Z,13.83
2019-02-20T16:00:56.934Z,16.13
2019-02-20T16:03:26.313Z,15.23
2019-02-20T16:05:55.477Z,16.83
2019-02-20T16:08:25.178Z,17.90
2019-02-20T16:10:55.168Z,16.37
2019-02-20T16:13:24.403Z,15.47
2019-02-20T16:15:56.127Z,15.63
2019-02-20T16:18:25.229Z,17.70
2019-02-20T16:20:54.407Z,17.87
2019-02-20T16:23:23.666Z,13.43
2019-02-20T16:25:54.919Z,16.57
2019-02-20T16:28:27.858Z,17.50
2019-02-20T16:30:54.499Z,17.90
2019-02-20T16:33:23.693Z,20.63
2019-02-20T16:35:53.466Z,15.13
2019-02-20T16:38:22.893Z,18.20
2019-02-20T16:40:52.088Z,14.43
2019-02-20T16:43:21.180Z,18.37
2019-02-20T16:46:09.422Z,17.40
2019-02-20T16:48:38.961Z,16.30
2019-02-20T16:51:08.193Z,14.57
2019-02-20T16:53:37.666Z,14.83
2019-02-20T16:56:07.082Z,25.23
2019-02-20T16:58:38.667Z,20.13
2019-02-20T17:01:08.937Z,15.70
2019-02-20T17:03:38.263Z,12.40
2019-02-20T17:06:07.495Z,14.20
2019-02-20T17:08:37.256Z,14.53
2019-02-20T17:11:06.445Z,17.13
2019-02-20T17:13:35.736Z,14.90
2019-02-20T17:16:04.848Z,18.07
2019-02-20T17:18:33.996Z,15.20
2019-02-20T17:21:03.169Z,19.23
2019-02-20T17:23:32.411Z,16.10
2019-02-20T17:26:01.574Z,15.63
2019-02-20T17:28:30.637Z,16.40
2019-02-20T17:30:59.791Z,12.60
2019-02-20T17:33:29.099Z,15.17
2019-02-20T17:35:58.376Z,16.13
2019-02-20T17:38:27.659Z,15.83
2019-02-20T17:40:56.822Z,17.97
2019-02-20T17:43:25.993Z,17.67
2019-02-20T17:45:55.070Z,14.37
2019-02-20T17:48:24.367Z,14.87
2019-02-20T17:50:53.625Z,15.93
2019-02-20T17:53:24.571Z,14.20
2019-02-20T17:55:53.732Z,12.60
2019-02-20T17:58:25.103Z,14.63
2019-02-20T18:00:54.278Z,12.20
2019-02-20T18:03:23.634Z,14.30
2019-02-20T18:05:52.645Z,16.13
2019-02-20T18:08:21.898Z,15.90
2019-02-20T18:10:50.976Z,12.23
2019-02-20T18:13:19.963Z,13.00
2019-02-20T18:15:49.184Z,16.77
2019-02-20T18:18:19.302Z,22.87
2019-02-20T18:20:50.097Z,30.30
2019-02-20T18:23:20.951Z,22.07
2019-02-20T18:25:49.967Z,15.80
2019-02-20T18:28:24.332Z,14.90
2019-02-20T18:30:49.778Z,17.37
2019-02-20T18:33:18.969Z,15.53
2019-02-20T18:35:48.265Z,14.67
2019-02-20T18:38:17.349Z,14.00
2019-02-20T18:40:46.639Z,13.40
2019-02-20T18:43:15.847Z,14.00
2019-02-20T18:45:45.371Z,13.97
2019-02-20T18:48:14.567Z,17.27
2019-02-20T18:50:46.338Z,12.20
2019-02-20T18:53:15.440Z,12.70
2019-02-20T18:55:44.461Z,17.57
2019-02-20T18:58:13.429Z,14.30
2019-02-20T19:00:42.699Z,15.30
2019-02-20T19:03:11.814Z,19.07
2019-02-20T19:05:40.954Z,12.03
2019-02-20T19:08:35.687Z,11.20
2019-02-20T19:11:09.164Z,15.23
2019-02-20T19:13:52.795Z,15.67
2019-02-20T19:16:49.119Z,13.70
2019-02-20T19:19:50.925Z,20.47
2019-02-20T19:23:12.325Z,12.93
2019-02-20T19:26:18.827Z,17.17
2019-02-20T19:29:25.438Z,12.33
2019-02-20T19:32:30.351Z,16.80
2019-02-20T19:35:35.720Z,15.07
2019-02-20T19:38:40.414Z,15.27
2019-02-20T19:41:42.017Z,10.03
2019-02-20T19:44:37.940Z,12.17
2019-02-20T19:47:44.851Z,17.37
2019-02-20T19:51:04.245Z,14.67
2019-02-20T19:53:48.032Z,14.50
2019-02-20T19:56:44.220Z,26.27
2019-02-20T20:00:08.741Z,17.60
2019-02-20T20:03:06.742Z,13.03
2019-02-20T20:06:16.240Z,13.40
2019-02-20T20:08:55.168Z,14.80
2019-02-20T20:11:55.786Z,12.03
2019-02-20T20:14:56.099Z,11.83
2019-02-20T20:17:49.612Z,12.87
2019-02-20T20:20:40.548Z,12.03
2019-02-20T20:23:47.240Z,12.00
2019-02-20T20:26:38.490Z,11.60
2019-02-20T20:29:54.588Z,11.37
2019-02-20T20:32:39.078Z,12.20
2019-02-20T20:36:04.823Z,13.37
2019-02-20T20:39:26.397Z,13.60
2019-02-20T20:42:31.065Z,11.50
2019-02-20T20:45:31.696Z,11.43
2019-02-20T20:48:21.292Z,9.00
2019-02-20T20:51:03.727Z,13.17
2019-02-20T20:53:52.697Z,18.73
2019-02-20T20:57:20.237Z,13.93
2019-02-20T21:00:05.062Z,11.13
2019-02-20T21:02:45.389Z,15.47
2019-02-20T21:06:03.675Z,14.33
2019-02-20T21:09:16.838Z,12.13
2019-02-20T21:12:19.100Z,11.33
2019-02-20T21:15:15.002Z,11.43
2019-02-20T21:18:16.757Z,11.87
2019-02-20T21:21:16.154Z,13.87
2019-02-20T21:24:12.251Z,12.93
2019-02-20T21:27:18.200Z,10.97
2019-02-20T21:30:26.615Z,10.07
2019-02-20T21:33:44.704Z,11.70
2019-02-20T21:36:28.027Z,11.93
2019-02-20T21:39:43.246Z,12.50
2019-02-20T21:42:38.223Z,9.33
2019-02-20T21:45:33.562Z,10.37
2019-02-20T21:48:46.805Z,10.97
2019-02-20T21:51:53.731Z,11.47
2019-02-20T21:55:11.732Z,12.50
2019-02-20T21:58:22.555Z,10.63
2019-02-20T22:01:08.534Z,8.23
2019-02-20T22:04:03.291Z,11.67
2019-02-20T22:06:53.147Z,10.90
2019-02-20T22:09:29.235Z,8.43
2019-02-20T22:12:50.902Z,9.50
2019-02-20T22:15:37.306Z,9.43
2019-02-20T22:18:37.955Z,8.77
2019-02-20T22:21:36.445Z,8.13
2019-02-20T22:24:44.461Z,13.70
2019-02-20T22:27:35.742Z,10.53
2019-02-20T22:30:45.246Z,8.37
2019-02-20T22:33:29.336Z,30.33
2019-02-20T22:36:42.598Z,22.67
2019-02-20T22:39:37.177Z,11.20
2019-02-20T22:42:50.309Z,14.43
2019-02-20T22:45:39.277Z,11.63
2019-02-20T22:48:44.351Z,7.37
2019-02-20T22:51:54.649Z,9.87
2019-02-20T22:54:57.331Z,12.50
2019-02-20T22:57:51.151Z,11.07
2019-02-20T23:00:59.901Z,11.63
2019-02-20T23:03:55.250Z,10.67
2019-02-20T23:06:50.236Z,13.17
2019-02-20T23:09:36.241Z,9.27
2019-02-20T23:12:30.483Z,10.30
2019-02-20T23:15:02.023Z,10.50
2019-02-20T23:17:31.093Z,12.60
2019-02-20T23:20:00.039Z,10.53
2019-02-20T23:22:29.300Z,8.13
2019-02-20T23:24:58.424Z,9.67
2019-02-20T23:27:27.763Z,8.97
2019-02-20T23:29:56.939Z,9.60
2019-02-20T23:32:25.979Z,10.93
2019-02-20T23:34:54.991Z,8.87
2019-02-20T23:37:24.154Z,7.53
2019-02-20T23:39:53.357Z,8.30
2019-02-20T23:42:22.591Z,12.43
2019-02-20T23:44:51.596Z,10.63
2019-02-20T23:47:20.688Z,9.50
2019-02-20T23:49:49.751Z,8.43
2019-02-20T23:52:19.239Z,11.10
2019-02-20T23:54:48.343Z,9.83
2019-02-20T23:57:18.889Z,10.90
2019-02-20T23:59:47.795Z,9.67
